createdAt,value
2022-11-18T00:02:16.301Z,98449.75
2022-11-18T00:04:45.894Z,98452.38
2022-11-18T00:07:18.087Z,98455.78
2022-11-18T00:09:48.731Z,98451.31
2022-11-18T00:12:30.719Z,98451.22
2022-11-18T00:15:00.242Z,98455.56
2022-11-18T00:17:30.159Z,98446.69
2022-11-18T00:19:59.908Z,98457.16
2022-11-18T00:22:32.030Z,98449.13
2022-11-18T00:25:01.566Z,98443.72
2022-11-18T00:27:32.751Z,98458.50
2022-11-18T00:30:02.313Z,98472.44
2022-11-18T00:32:31.894Z,98471.50
2022-11-18T00:35:01.394Z,98461.03
2022-11-18T00:37:33.570Z,98472.78
2022-11-18T00:40:03.152Z,98466.84
2022-11-18T00:42:45.205Z,98459.13
2022-11-18T00:45:14.816Z,98469.91
2022-11-18T00:47:44.353Z,98462.09
2022-11-18T00:50:13.891Z,98473.50
2022-11-18T00:52:46.063Z,98478.78
2022-11-18T00:55:15.815Z,98478.69
2022-11-18T00:57:47.726Z,98478.69
2022-11-18T01:00:17.829Z,98476.91
2022-11-18T01:02:47.635Z,98475.19
2022-11-18T01:05:17.229Z,98475.59
2022-11-18T01:07:49.355Z,98482.25
2022-11-18T01:10:19.631Z,98487.22
2022-11-18T01:13:01.612Z,98490.47
2022-11-18T01:15:31.161Z,98491.28
2022-11-18T01:18:00.700Z,98488.59
2022-11-18T01:20:30.242Z,98494.44
2022-11-18T01:23:02.442Z,98499.06
2022-11-18T01:25:32.474Z,98500.03
2022-11-18T01:28:02.034Z,98500.78
2022-11-18T01:30:31.630Z,98509.25
2022-11-18T01:33:01.172Z,98507.16
2022-11-18T01:35:30.715Z,98503.38
2022-11-18T01:38:03.033Z,98505.50
2022-11-18T01:40:33.213Z,98512.28
2022-11-18T01:43:02.917Z,98510.19
2022-11-18T01:45:35.901Z,98514.22
2022-11-18T01:48:09.867Z,98516.66
2022-11-18T01:50:43.452Z,98518.16
2022-11-18T01:53:17.787Z,98519.63
2022-11-18T01:55:49.345Z,98523.94
2022-11-18T01:58:23.500Z,98529.22
2022-11-18T02:00:52.912Z,98523.44
2022-11-18T02:03:23.516Z,98522.03
2022-11-18T02:05:53.493Z,98531.94
2022-11-18T02:08:26.088Z,98532.16
2022-11-18T02:10:55.637Z,98535.91
2022-11-18T02:13:25.526Z,98531.50
2022-11-18T02:16:00.338Z,98534.03
2022-11-18T02:18:36.240Z,98538.28
2022-11-18T02:21:15.042Z,98539.88
2022-11-18T02:24:09.515Z,98543.44
2022-11-18T02:27:15.460Z,98542.78
2022-11-18T02:29:50.798Z,98546.47
2022-11-18T02:32:23.290Z,98550.09
2022-11-18T02:34:54.659Z,98551.75
2022-11-18T02:37:28.230Z,98554.31
2022-11-18T02:40:01.662Z,98562.97
2022-11-18T02:42:32.728Z,98559.38
2022-11-18T02:45:08.799Z,98559.38
2022-11-18T02:47:39.523Z,98563.63
2022-11-18T02:50:13.130Z,98560.88
2022-11-18T02:52:43.822Z,98557.41
2022-11-18T02:55:15.335Z,98561.09
2022-11-18T02:57:46.684Z,98564.78
2022-11-18T03:00:20.031Z,98565.72
2022-11-18T03:02:51.297Z,98564.78
2022-11-18T03:05:23.977Z,98563.84
2022-11-18T03:07:57.611Z,98569.84
2022-11-18T03:10:28.614Z,98570.66
2022-11-18T03:13:07.711Z,98575.00
2022-11-18T03:15:47.240Z,98580.94
2022-11-18T03:18:19.579Z,98584.44
2022-11-18T03:20:53.715Z,98579.91
2022-11-18T03:23:24.371Z,98587.63
2022-11-18T03:25:56.395Z,98590.16
2022-11-18T03:28:30.521Z,98598.81
2022-11-18T03:31:02.851Z,98599.56
2022-11-18T03:33:36.924Z,98598.72
2022-11-18T03:36:08.706Z,98605.69
2022-11-18T03:38:42.053Z,98606.34
2022-11-18T03:41:13.541Z,98616.78
2022-11-18T03:43:46.486Z,98619.22
2022-11-18T03:46:20.645Z,98623.44
2022-11-18T03:48:50.847Z,98623.28
2022-11-18T03:51:23.555Z,98639.00
2022-11-18T03:53:55.644Z,98633.72
2022-11-18T03:56:29.425Z,98633.72
2022-11-18T03:59:03.105Z,98635.50
2022-11-18T04:01:37.513Z,98635.50
2022-11-18T04:04:07.733Z,98633.63
2022-11-18T04:06:40.868Z,98632.78
2022-11-18T04:09:16.055Z,98640.59
2022-11-18T04:12:02.278Z,98650.19
2022-11-18T04:14:32.205Z,98645.69
2022-11-18T04:17:08.689Z,98650.03
2022-11-18T04:19:38.283Z,98652.66
2022-11-18T04:22:07.999Z,98656.97
2022-11-18T04:24:37.591Z,98656.03
2022-11-18T04:27:07.527Z,98656.03
2022-11-18T04:29:37.400Z,98662.19
2022-11-18T04:32:09.658Z,98663.22
2022-11-18T04:34:39.239Z,98666.03
2022-11-18T04:37:08.798Z,98671.53
2022-11-18T04:39:38.385Z,98675.03
2022-11-18T04:42:08.286Z,98671.31
2022-11-18T04:44:37.852Z,98685.19
2022-11-18T04:47:10.361Z,98677.94
2022-11-18T04:49:40.002Z,98683.72
2022-11-18T04:52:09.618Z,98683.44
2022-11-18T04:54:39.278Z,98688.41
2022-11-18T04:57:08.862Z,98689.91
2022-11-18T04:59:38.449Z,98688.66
2022-11-18T05:02:10.735Z,98697.22
2022-11-18T05:04:40.359Z,98696.06
2022-11-18T05:07:10.455Z,98699.38
2022-11-18T05:09:40.033Z,98701.81
2022-11-18T05:12:24.979Z,98703.41
2022-11-18T05:14:54.718Z,98698.84
2022-11-18T05:17:26.897Z,98704.03
2022-11-18T05:19:56.438Z,98706.78
2022-11-18T05:22:25.989Z,98711.31
2022-11-18T05:24:55.543Z,98714.19
2022-11-18T05:27:25.146Z,98715.34
2022-11-18T05:29:55.042Z,98715.50
2022-11-18T05:32:27.256Z,98724.31
2022-11-18T05:34:56.884Z,98723.53
2022-11-18T05:37:26.428Z,98727.22
2022-11-18T05:39:56.058Z,98728.09
2022-11-18T05:42:38.033Z,98727.22
2022-11-18T05:45:08.615Z,98730.84
2022-11-18T05:47:52.987Z,98736.31
2022-11-18T05:50:22.553Z,98746.16
2022-11-18T05:52:52.100Z,98748.88
2022-11-18T05:55:22.538Z,98750.50
2022-11-18T05:57:52.601Z,98752.91
2022-11-18T06:00:22.657Z,98748.25
2022-11-18T06:02:56.988Z,98756.84
2022-11-18T06:05:27.787Z,98762.13
2022-11-18T06:07:59.815Z,98762.03
2022-11-18T06:10:32.232Z,98762.91
2022-11-18T06:13:04.025Z,98773.25
2022-11-18T06:15:35.554Z,98772.09
2022-11-18T06:18:10.454Z,98774.53
2022-11-18T06:20:40.904Z,98783.22
2022-11-18T06:23:10.430Z,98784.81
2022-11-18T06:25:42.473Z,98785.56
2022-11-18T06:28:13.520Z,98787.25
2022-11-18T06:30:43.168Z,98791.59
2022-11-18T06:33:15.469Z,98789.59
2022-11-18T06:35:45.557Z,98795.75
2022-11-18T06:38:15.104Z,98798.56
2022-11-18T06:40:44.859Z,98800.59
2022-11-18T06:43:27.762Z,98808.78
2022-11-18T06:46:13.506Z,98809.09
2022-11-18T06:48:45.647Z,98810.97
2022-11-18T06:51:22.290Z,98818.06
2022-11-18T06:53:52.291Z,98819.88
2022-11-18T06:56:22.948Z,98827.81
2022-11-18T06:58:55.994Z,98831.19
2022-11-18T07:01:28.012Z,98838.19
2022-11-18T07:04:01.622Z,98838.06
2022-11-18T07:06:32.972Z,98845.78
2022-11-18T07:09:02.846Z,98843.06
2022-11-18T07:11:32.768Z,98849.94
2022-11-18T07:14:02.544Z,98855.88
2022-11-18T07:16:32.132Z,98854.75
2022-11-18T07:19:04.356Z,98856.34
2022-11-18T07:21:33.888Z,98859.59
2022-11-18T07:24:03.466Z,98861.31
2022-11-18T07:26:33.034Z,98875.28
2022-11-18T07:29:02.726Z,98876.91
2022-11-18T07:31:32.296Z,98874.97
2022-11-18T07:34:04.933Z,98877.53
2022-11-18T07:36:36.133Z,98883.69
2022-11-18T07:39:07.690Z,98886.31
2022-11-18T07:41:37.769Z,98890.63
2022-11-18T07:44:08.334Z,98892.25
2022-11-18T07:46:39.285Z,98895.75
2022-11-18T07:49:12.113Z,98898.28
2022-11-18T07:51:42.963Z,98902.81
2022-11-18T07:54:13.730Z,98901.22
2022-11-18T07:56:43.438Z,98914.44
2022-11-18T07:59:13.066Z,98907.47
2022-11-18T08:01:42.700Z,98916.16
2022-11-18T08:04:15.371Z,98921.06
2022-11-18T08:06:45.571Z,98927.72
2022-11-18T08:09:15.674Z,98928.28
2022-11-18T08:11:45.324Z,98926.16
2022-11-18T08:14:14.972Z,98926.81
2022-11-18T08:16:44.530Z,98937.97
2022-11-18T08:19:16.934Z,98935.94
2022-11-18T08:21:46.710Z,98939.91
2022-11-18T08:24:16.290Z,98942.13
2022-11-18T08:26:45.853Z,98942.69
2022-11-18T08:29:17.917Z,98947.59
2022-11-18T08:31:51.468Z,98947.09
2022-11-18T08:34:23.716Z,98944.88
2022-11-18T08:36:53.263Z,98948.06
2022-11-18T08:39:22.982Z,98947.63
2022-11-18T08:41:52.555Z,98947.44
2022-11-18T08:44:22.147Z,98955.41
2022-11-18T08:46:51.743Z,98949.34
2022-11-18T08:49:28.231Z,98953.91
2022-11-18T08:52:00.770Z,98957.50
2022-11-18T08:54:31.624Z,98954.84
2022-11-18T08:57:01.175Z,98961.63
2022-11-18T08:59:30.773Z,98969.16
2022-11-18T09:02:00.410Z,98977.63
2022-11-18T09:04:32.897Z,98970.97
2022-11-18T09:07:02.945Z,98975.53
2022-11-18T09:09:32.664Z,98974.69
2022-11-18T09:12:02.729Z,98974.47
2022-11-18T09:15:12.545Z,98979.22
2022-11-18T09:17:23.427Z,98980.97
2022-11-18T09:19:55.679Z,98982.09
2022-11-18T09:22:26.341Z,98984.56
2022-11-18T09:24:55.941Z,98994.53
2022-11-18T09:27:25.526Z,98988.53
2022-11-18T09:29:55.122Z,98993.66
2022-11-18T09:32:24.689Z,98989.03
2022-11-18T09:34:56.886Z,98981.47
2022-11-18T09:37:26.459Z,98982.03
2022-11-18T09:39:56.041Z,98992.75
2022-11-18T09:42:44.892Z,98989.97
2022-11-18T09:45:24.718Z,98997.50
2022-11-18T09:47:55.222Z,99005.13
2022-11-18T09:50:48.620Z,99006.03
2022-11-18T09:53:22.154Z,99004.94
2022-11-18T09:55:53.449Z,99009.59
2022-11-18T09:58:28.289Z,99024.00
2022-11-18T10:00:57.875Z,99021.22
2022-11-18T10:03:30.563Z,99029.56
2022-11-18T10:06:09.430Z,99031.09
2022-11-18T10:08:44.145Z,99040.56
2022-11-18T10:11:17.506Z,99038.09
2022-11-18T10:13:58.700Z,99047.63
2022-11-18T10:16:36.593Z,99046.25
2022-11-18T10:19:14.997Z,99050.81
2022-11-18T10:21:57.245Z,99050.63
2022-11-18T10:24:28.202Z,99053.03
2022-11-18T10:26:59.233Z,99065.19
2022-11-18T10:29:29.733Z,99053.34
2022-11-18T10:32:04.772Z,99062.50
2022-11-18T10:34:35.308Z,99062.50
2022-11-18T10:37:16.278Z,99062.03
2022-11-18T10:39:53.498Z,99062.31
2022-11-18T10:42:29.638Z,99065.97
2022-11-18T10:44:59.657Z,99071.22
2022-11-18T10:47:31.589Z,99073.53
2022-11-18T10:50:02.383Z,99070.38
2022-11-18T10:52:34.579Z,99073.84
2022-11-18T10:55:25.367Z,99077.81
2022-11-18T10:57:58.396Z,99063.44
2022-11-18T11:00:43.026Z,99079.53
2022-11-18T11:03:25.210Z,99072.81
2022-11-18T11:06:33.485Z,99073.31
2022-11-18T11:09:09.182Z,99077.81
2022-11-18T11:11:43.209Z,99073.00
2022-11-18T11:14:26.367Z,99079.16
2022-11-18T11:17:01.129Z,99085.53
2022-11-18T11:19:38.260Z,99076.13
2022-11-18T11:22:12.017Z,99077.78
2022-11-18T11:24:44.314Z,99074.69
2022-11-18T11:30:18.741Z,99086.31
2022-11-18T11:33:14.076Z,99087.66
2022-11-18T11:35:51.040Z,99090.44
2022-11-18T11:38:25.873Z,99087.50
2022-11-18T11:41:05.495Z,99090.59
2022-11-18T11:43:42.580Z,99084.09
2022-11-18T11:46:30.298Z,99088.97
2022-11-18T11:49:08.704Z,99087.72
2022-11-18T11:51:42.673Z,99081.78
2022-11-18T11:54:20.588Z,99095.34
2022-11-18T11:56:56.153Z,99089.63
2022-11-18T11:59:31.736Z,99096.09
2022-11-18T12:02:15.840Z,99093.03
2022-11-18T12:04:48.584Z,99084.84
2022-11-18T12:07:22.054Z,99088.34
2022-11-18T12:10:04.520Z,99093.03
2022-11-18T12:12:44.536Z,99082.59
2022-11-18T12:15:31.206Z,99088.56
2022-11-18T12:18:06.533Z,99084.72
2022-11-18T12:20:44.942Z,99092.22
2022-11-18T12:23:19.283Z,99086.25
2022-11-18T12:26:00.856Z,99088.25
2022-11-18T12:28:35.929Z,99087.78
2022-11-18T12:31:30.930Z,99088.78
2022-11-18T12:34:01.936Z,99087.31
2022-11-18T12:36:32.607Z,99089.09
2022-11-18T12:39:23.042Z,99089.38
2022-11-18T12:42:09.675Z,99093.19
2022-11-18T12:44:42.199Z,99086.06
2022-11-18T12:47:12.672Z,99093.19
2022-11-18T12:50:12.157Z,99089.06
2022-11-18T12:52:49.899Z,99100.69
2022-11-18T12:55:24.159Z,99108.50
2022-11-18T12:57:53.943Z,99114.47
2022-11-18T13:00:54.632Z,99115.31
2022-11-18T13:03:29.270Z,99117.09
2022-11-18T13:06:10.406Z,99121.41
2022-11-18T13:08:40.317Z,99128.13
2022-11-18T13:11:26.272Z,99139.09
2022-11-18T13:14:16.600Z,99137.75
2022-11-18T13:17:01.769Z,99138.53
2022-11-18T13:19:31.345Z,99138.25
2022-11-18T13:22:15.589Z,99149.31
2022-11-18T13:24:49.731Z,99147.25
2022-11-18T13:27:33.771Z,99145.94
2022-11-18T13:30:08.761Z,99155.19
2022-11-18T13:32:45.637Z,99156.41
2022-11-18T13:35:17.667Z,99154.06
2022-11-18T13:37:55.640Z,99156.91
2022-11-18T13:40:28.435Z,99157.44
2022-11-18T13:42:58.475Z,99153.31
2022-11-18T13:45:30.180Z,99157.06
2022-11-18T13:48:05.427Z,99150.34
2022-11-18T13:50:36.927Z,99157.06
2022-11-18T13:53:12.735Z,99149.00
2022-11-18T13:55:46.684Z,99148.19
2022-11-18T13:58:30.317Z,99146.97
2022-11-18T14:01:02.335Z,99146.66
2022-11-18T14:03:37.162Z,99142.03
2022-11-18T14:06:06.813Z,99148.28
2022-11-18T14:08:38.228Z,99155.66
2022-11-18T14:11:09.303Z,99147.31
2022-11-18T14:13:40.292Z,99157.63
2022-11-18T14:16:33.340Z,99158.28
2022-11-18T14:19:05.542Z,99159.81
2022-11-18T14:21:38.268Z,99163.88
2022-11-18T14:24:08.556Z,99170.59
2022-11-18T14:26:39.964Z,99171.03
2022-11-18T14:29:23.244Z,99172.34
2022-11-18T14:32:16.471Z,99178.97
2022-11-18T14:34:49.298Z,99169.78
2022-11-18T14:37:19.195Z,99174.56
2022-11-18T14:39:57.804Z,99174.94
2022-11-18T14:42:27.791Z,99173.63
2022-11-18T14:44:57.345Z,99171.31
2022-11-18T14:47:30.286Z,99176.19
2022-11-18T14:50:02.473Z,99184.41
2022-11-18T14:52:32.077Z,99178.63
2022-11-18T14:55:01.706Z,99174.59
2022-11-18T14:57:31.368Z,99174.03
2022-11-18T15:00:00.961Z,99170.88
2022-11-18T15:02:30.538Z,99173.94
2022-11-18T15:05:02.677Z,99184.00
2022-11-18T15:07:32.283Z,99180.00
2022-11-18T15:10:01.874Z,99185.63
2022-11-18T15:12:31.553Z,99193.88
2022-11-18T15:15:01.694Z,99191.56
2022-11-18T15:17:35.523Z,99194.63
2022-11-18T15:20:08.598Z,99193.22
2022-11-18T15:22:38.347Z,99197.13
2022-11-18T15:25:08.910Z,99199.16
2022-11-18T15:27:38.680Z,99195.16
2022-11-18T15:30:09.634Z,99196.44
2022-11-18T15:32:39.180Z,99206.44
2022-11-18T15:35:14.251Z,99211.97
2022-11-18T15:37:43.826Z,99209.63
2022-11-18T15:40:13.804Z,99207.31
2022-11-18T15:42:50.602Z,99217.41
2022-11-18T15:45:21.259Z,99211.66
2022-11-18T15:47:50.887Z,99212.00
2022-11-18T15:50:23.059Z,99214.94
2022-11-18T15:52:54.290Z,99211.75
2022-11-18T15:55:23.899Z,99215.72
2022-11-18T15:57:53.602Z,99217.09
2022-11-18T16:00:23.207Z,99221.03
2022-11-18T16:02:52.946Z,99222.34
2022-11-18T16:05:25.118Z,99222.63
2022-11-18T16:07:55.124Z,99221.22
2022-11-18T16:10:37.290Z,99229.41
2022-11-18T16:13:06.939Z,99227.22
2022-11-18T16:15:48.271Z,99233.63
2022-11-18T16:18:20.378Z,99232.94
2022-11-18T16:20:52.533Z,99241.72
2022-11-18T16:23:22.213Z,99240.91
2022-11-18T16:25:51.844Z,99244.59
2022-11-18T16:28:21.413Z,99243.94
2022-11-18T16:31:03.654Z,99240.75
2022-11-18T16:33:33.223Z,99244.44
2022-11-18T16:36:05.804Z,99240.25
2022-11-18T16:38:35.493Z,99248.28
2022-11-18T16:41:25.079Z,99241.47
2022-11-18T16:43:54.633Z,99256.59
2022-11-18T16:46:24.278Z,99249.81
2022-11-18T16:48:53.872Z,99254.34
2022-11-18T16:51:27.545Z,99256.34
2022-11-18T16:53:58.337Z,99257.38
2022-11-18T16:56:30.225Z,99261.06
2022-11-18T16:59:00.993Z,99254.16
2022-11-18T17:01:31.113Z,99257.69
2022-11-18T17:04:01.267Z,99262.66
2022-11-18T17:06:34.443Z,99265.03
2022-11-18T17:09:04.311Z,99263.66
2022-11-18T17:11:33.930Z,99261.28
2022-11-18T17:14:03.508Z,99263.34
2022-11-18T17:16:33.258Z,99272.47
2022-11-18T17:19:10.158Z,99266.75
2022-11-18T17:21:44.458Z,99276.78
2022-11-18T17:24:16.890Z,99271.09
2022-11-18T17:26:47.536Z,99274.06
2022-11-18T17:29:17.633Z,99277.97
2022-11-18T17:31:47.701Z,99273.97
2022-11-18T17:34:18.438Z,99272.59
2022-11-18T17:36:50.776Z,99276.47
2022-11-18T17:39:20.943Z,99273.44
2022-11-18T17:42:03.120Z,99275.72
2022-11-18T17:44:32.674Z,99284.09
2022-11-18T17:47:02.904Z,99282.06
2022-11-18T17:49:32.485Z,99282.63
2022-11-18T17:52:04.717Z,99286.72
2022-11-18T17:54:34.274Z,99283.75
2022-11-18T17:57:03.841Z,99294.00
2022-11-18T17:59:33.395Z,99288.41
2022-11-18T18:02:03.004Z,99296.09
2022-11-18T18:04:32.650Z,99291.66
2022-11-18T18:07:04.966Z,99288.31
2022-11-18T18:09:34.617Z,99295.56
2022-11-18T18:12:24.196Z,99291.59
2022-11-18T18:14:51.379Z,99301.84
2022-11-18T18:17:21.044Z,99312.00
2022-11-18T18:19:50.660Z,99302.06
2022-11-18T18:22:22.842Z,99306.88
2022-11-18T18:24:52.385Z,99309.66
2022-11-18T18:27:21.959Z,99313.84
2022-11-18T18:29:52.566Z,99316.31
2022-11-18T18:32:22.152Z,99311.22
2022-11-18T18:34:51.742Z,99317.56
2022-11-18T18:37:23.964Z,99321.03
2022-11-18T18:39:53.545Z,99314.78
2022-11-18T18:42:23.098Z,99318.97
2022-11-18T18:45:05.146Z,99317.88
2022-11-18T18:47:37.000Z,99325.47
2022-11-18T18:50:07.388Z,99331.38
2022-11-18T18:52:39.947Z,99331.06
2022-11-18T18:55:10.288Z,99343.84
2022-11-18T18:57:39.841Z,99349.69
2022-11-18T19:00:11.448Z,99345.94
2022-11-18T19:02:41.205Z,99347.50
2022-11-18T19:05:11.032Z,99349.94
2022-11-18T19:07:44.600Z,99353.31
2022-11-18T19:10:14.268Z,99355.88
2022-11-18T19:12:43.922Z,99358.44
2022-11-18T19:15:13.957Z,99360.06
2022-11-18T19:17:44.193Z,99360.84
2022-11-18T19:20:27.738Z,99358.13
2022-11-18T19:25:52.923Z,99355.34
2022-11-18T19:28:22.519Z,99359.53
2022-11-18T19:30:52.204Z,99360.41
2022-11-18T19:33:21.745Z,99362.16
2022-11-18T19:35:51.302Z,99352.56
2022-11-18T19:38:23.470Z,99352.56
2022-11-18T19:40:53.045Z,99353.56
2022-11-18T19:43:22.707Z,99357.31
2022-11-18T19:45:53.519Z,99361.88
2022-11-18T19:48:23.339Z,99359.47
2022-11-18T19:50:53.172Z,99365.03
2022-11-18T19:53:40.322Z,99368.78
2022-11-18T19:56:12.654Z,99367.13
2022-11-18T19:58:44.030Z,99366.28
2022-11-18T20:01:18.784Z,99369.84
2022-11-18T20:03:49.526Z,99369.00
2022-11-18T20:06:20.915Z,99369.84
2022-11-18T20:08:53.739Z,99383.03
2022-11-18T20:11:23.705Z,99377.75
2022-11-18T20:13:53.577Z,99371.56
2022-11-18T20:16:24.044Z,99381.25
2022-11-18T20:18:56.055Z,99375.13
2022-11-18T20:21:26.323Z,99376.75
2022-11-18T20:24:00.595Z,99367.94
2022-11-18T20:26:32.016Z,99371.31
2022-11-18T20:29:01.582Z,99379.22
2022-11-18T20:31:33.216Z,99369.59
2022-11-18T20:34:03.590Z,99366.22
2022-11-18T20:36:34.731Z,99381.94
2022-11-18T20:39:08.995Z,99371.41
2022-11-18T20:41:38.538Z,99378.31
2022-11-18T20:44:08.529Z,99379.16
2022-11-18T20:46:38.091Z,99368.47
2022-11-18T20:49:07.894Z,99382.34
2022-11-18T20:51:37.433Z,99383.97
2022-11-18T20:54:09.552Z,99384.69
2022-11-18T20:56:39.835Z,99376.69
2022-11-18T20:59:09.404Z,99381.03
2022-11-18T21:01:39.034Z,99385.22
2022-11-18T21:04:08.619Z,99379.88
2022-11-18T21:06:38.604Z,99390.19
2022-11-18T21:09:10.796Z,99393.59
2022-11-18T21:11:40.697Z,99388.25
2022-11-18T21:14:26.762Z,99394.28
2022-11-18T21:17:00.346Z,99407.41
2022-11-18T21:19:30.462Z,99414.31
2022-11-18T21:21:57.475Z,99406.47
2022-11-18T21:24:31.212Z,99412.66
2022-11-18T21:27:01.900Z,99404.72
2022-11-18T21:29:32.733Z,99408.25
2022-11-18T21:32:03.300Z,99407.56
2022-11-18T21:34:33.169Z,99406.16
2022-11-18T21:37:02.957Z,99410.91
2022-11-18T21:39:35.118Z,99414.72
2022-11-18T21:42:05.373Z,99414.16
2022-11-18T21:44:34.929Z,99421.44
2022-11-18T21:47:04.800Z,99422.50
2022-11-18T21:49:34.382Z,99420.03
2022-11-18T21:52:03.964Z,99426.38
2022-11-18T21:54:36.837Z,99417.75
2022-11-18T21:57:06.476Z,99421.41
2022-11-18T21:59:36.009Z,99434.66
2022-11-18T22:02:05.569Z,99436.53
2022-11-18T22:04:47.570Z,99437.47
2022-11-18T22:07:17.225Z,99437.38
2022-11-18T22:09:49.619Z,99433.81
2022-11-18T22:12:19.430Z,99433.75
2022-11-18T22:14:49.064Z,99433.75
2022-11-18T22:17:18.663Z,99434.66
2022-11-18T22:19:48.201Z,99434.81
2022-11-18T22:22:18.384Z,99427.91
2022-11-18T22:24:50.611Z,99441.25
2022-11-18T22:27:20.135Z,99430.97
2022-11-18T22:29:49.678Z,99433.84
2022-11-18T22:32:19.486Z,99436.63
2022-11-18T22:34:51.786Z,99434.13
2022-11-18T22:37:21.587Z,99432.44
2022-11-18T22:39:53.704Z,99434.28
2022-11-18T22:42:35.752Z,99437.00
2022-11-18T22:45:05.278Z,99433.63
2022-11-18T22:47:34.907Z,99444.31
2022-11-18T22:50:04.479Z,99440.13
2022-11-18T22:52:34.053Z,99447.38
2022-11-18T22:55:06.583Z,99439.69
2022-11-18T22:57:36.923Z,99443.41
2022-11-18T23:00:07.301Z,99445.25
2022-11-18T23:02:36.936Z,99445.38
2022-11-18T23:05:07.434Z,99441.97
2022-11-18T23:07:37.076Z,99439.41
2022-11-18T23:10:09.845Z,99446.53
2022-11-18T23:12:51.915Z,99445.72
2022-11-18T23:15:21.535Z,99440.53
2022-11-18T23:17:51.381Z,99442.41
2022-11-18T23:20:21.400Z,99450.38
2022-11-18T23:22:51.031Z,99446.94
2022-11-18T23:25:23.204Z,99449.56
2022-11-18T23:27:54.399Z,99451.34
2022-11-18T23:30:24.122Z,99454.84
2022-11-18T23:32:55.554Z,99457.47
2022-11-18T23:35:25.307Z,99453.91
2022-11-18T23:37:55.923Z,99455.63
2022-11-18T23:40:29.039Z,99455.63
2022-11-18T23:42:58.722Z,99456.47
2022-11-18T23:45:29.221Z,99459.19
2022-11-18T23:47:59.014Z,99463.63
2022-11-18T23:50:28.591Z,99463.63
2022-11-18T23:52:58.214Z,99469.72
2022-11-18T23:55:30.414Z,99453.91
2022-11-18T23:58:00.008Z,99453.06
